sensor_id;sensor_type;location;lat;lon;timestamp;temperature;humidity
51801;DHT22;37855;53.204;6.568;2022-08-19T00:01:28;17.80;99.90
51801;DHT22;37855;53.204;6.568;2022-08-19T00:03:56;17.70;99.90
51801;DHT22;37855;53.204;6.568;2022-08-19T00:06:28;17.70;99.90
51801;DHT22;37855;53.204;6.568;2022-08-19T00:08:55;17.70;99.90
51801;DHT22;37855;53.204;6.568;2022-08-19T00:11:21;17.70;99.90
51801;DHT22;37855;53.204;6.568;2022-08-19T00:13:46;17.80;99.90
51801;DHT22;37855;53.204;6.568;2022-08-19T00:16:17;17.70;99.90
51801;DHT22;37855;53.204;6.568;2022-08-19T00:18:47;17.60;99.90
51801;DHT22;37855;53.204;6.568;2022-08-19T00:21:13;17.60;99.90
51801;DHT22;37855;53.204;6.568;2022-08-19T00:23:40;17.50;99.90
51801;DHT22;37855;53.204;6.568;2022-08-19T00:26:06;17.50;99.90
51801;DHT22;37855;53.204;6.568;2022-08-19T00:28:32;17.50;99.90
51801;DHT22;37855;53.204;6.568;2022-08-19T00:30:59;17.50;99.90
51801;DHT22;37855;53.204;6.568;2022-08-19T00:33:25;17.40;99.90
51801;DHT22;37855;53.204;6.568;2022-08-19T00:35:51;17.40;99.90
51801;DHT22;37855;53.204;6.568;2022-08-19T00:38:17;17.30;99.90
51801;DHT22;37855;53.204;6.568;2022-08-19T00:40:43;17.30;99.90
51801;DHT22;37855;53.204;6.568;2022-08-19T00:43:12;17.20;99.90
51801;DHT22;37855;53.204;6.568;2022-08-19T00:45:41;17.20;99.90
51801;DHT22;37855;53.204;6.568;2022-08-19T00:48:09;17.20;99.90
51801;DHT22;37855;53.204;6.568;2022-08-19T00:50:34;17.10;99.90
51801;DHT22;37855;53.204;6.568;2022-08-19T00:53:05;17.10;99.90
51801;DHT22;37855;53.204;6.568;2022-08-19T00:55:32;17.00;99.90
51801;DHT22;37855;53.204;6.568;2022-08-19T00:58:02;17.00;99.90
51801;DHT22;37855;53.204;6.568;2022-08-19T01:00:29;17.00;99.90
51801;DHT22;37855;53.204;6.568;2022-08-19T01:02:55;17.00;99.90
51801;DHT22;37855;53.204;6.568;2022-08-19T01:05:24;17.00;99.90
51801;DHT22;37855;53.204;6.568;2022-08-19T01:07:53;17.00;99.90
51801;DHT22;37855;53.204;6.568;2022-08-19T01:10:23;17.00;99.90
51801;DHT22;37855;53.204;6.568;2022-08-19T01:12:50;17.00;99.90
51801;DHT22;37855;53.204;6.568;2022-08-19T01:15:21;16.90;99.90
51801;DHT22;37855;53.204;6.568;2022-08-19T01:17:48;17.10;99.90
51801;DHT22;37855;53.204;6.568;2022-08-19T01:20:19;17.00;99.90
51801;DHT22;37855;53.204;6.568;2022-08-19T01:22:48;16.90;99.90
51801;DHT22;37855;53.204;6.568;2022-08-19T01:25:16;17.00;99.90
51801;DHT22;37855;53.204;6.568;2022-08-19T01:27:46;17.10;99.90
51801;DHT22;37855;53.204;6.568;2022-08-19T01:30:18;17.00;99.90
51801;DHT22;37855;53.204;6.568;2022-08-19T01:32:47;17.00;99.90
51801;DHT22;37855;53.204;6.568;2022-08-19T01:35:14;17.00;99.90
51801;DHT22;37855;53.204;6.568;2022-08-19T01:38:01;17.00;99.90
51801;DHT22;37855;53.204;6.568;2022-08-19T01:40:30;17.00;99.90
51801;DHT22;37855;53.204;6.568;2022-08-19T01:42:59;16.90;99.90
51801;DHT22;37855;53.204;6.568;2022-08-19T01:45:29;16.90;99.90
51801;DHT22;37855;53.204;6.568;2022-08-19T01:47:58;16.90;99.90
51801;DHT22;37855;53.204;6.568;2022-08-19T01:50:25;16.90;99.90
51801;DHT22;37855;53.204;6.568;2022-08-19T01:52:52;16.90;99.90
51801;DHT22;37855;53.204;6.568;2022-08-19T01:55:20;16.90;99.90
51801;DHT22;37855;53.204;6.568;2022-08-19T01:58:12;16.90;99.90
51801;DHT22;37855;53.204;6.568;2022-08-19T02:00:40;16.90;99.90
51801;DHT22;37855;53.204;6.568;2022-08-19T02:03:05;16.90;99.90
51801;DHT22;37855;53.204;6.568;2022-08-19T02:05:32;16.90;99.90
51801;DHT22;37855;53.204;6.568;2022-08-19T02:07:58;16.90;99.90
51801;DHT22;37855;53.204;6.568;2022-08-19T02:10:29;16.90;99.90
51801;DHT22;37855;53.204;6.568;2022-08-19T02:12:58;16.90;99.90
51801;DHT22;37855;53.204;6.568;2022-08-19T02:15:24;17.00;99.90
51801;DHT22;37855;53.204;6.568;2022-08-19T02:17:51;16.80;99.90
51801;DHT22;37855;53.204;6.568;2022-08-19T02:20:19;16.90;99.90
51801;DHT22;37855;53.204;6.568;2022-08-19T02:22:45;16.80;99.90
51801;DHT22;37855;53.204;6.568;2022-08-19T02:25:13;16.80;99.90
51801;DHT22;37855;53.204;6.568;2022-08-19T02:27:46;16.90;99.90
51801;DHT22;37855;53.204;6.568;2022-08-19T02:30:17;16.80;99.90
51801;DHT22;37855;53.204;6.568;2022-08-19T02:32:44;16.80;99.90
51801;DHT22;37855;53.204;6.568;2022-08-19T02:35:11;16.80;99.90
51801;DHT22;37855;53.204;6.568;2022-08-19T02:37:37;16.80;99.90
51801;DHT22;37855;53.204;6.568;2022-08-19T02:40:21;16.70;99.90
51801;DHT22;37855;53.204;6.568;2022-08-19T02:42:47;16.70;99.90
51801;DHT22;37855;53.204;6.568;2022-08-19T02:45:13;16.70;99.90
51801;DHT22;37855;53.204;6.568;2022-08-19T02:47:39;16.80;99.90
51801;DHT22;37855;53.204;6.568;2022-08-19T02:50:06;16.70;99.90
51801;DHT22;37855;53.204;6.568;2022-08-19T02:52:33;16.70;99.90
51801;DHT22;37855;53.204;6.568;2022-08-19T02:54:58;16.70;99.90
51801;DHT22;37855;53.204;6.568;2022-08-19T02:57:25;16.70;99.90
51801;DHT22;37855;53.204;6.568;2022-08-19T02:59:53;16.60;99.90
51801;DHT22;37855;53.204;6.568;2022-08-19T03:02:19;16.60;99.90
51801;DHT22;37855;53.204;6.568;2022-08-19T03:04:45;16.70;99.90
51801;DHT22;37855;53.204;6.568;2022-08-19T03:07:13;16.60;99.90
51801;DHT22;37855;53.204;6.568;2022-08-19T03:09:39;16.60;99.90
51801;DHT22;37855;53.204;6.568;2022-08-19T03:12:05;16.50;99.90
51801;DHT22;37855;53.204;6.568;2022-08-19T03:14:33;16.60;99.90
51801;DHT22;37855;53.204;6.568;2022-08-19T03:17:00;16.50;99.90
51801;DHT22;37855;53.204;6.568;2022-08-19T03:19:26;16.50;99.90
51801;DHT22;37855;53.204;6.568;2022-08-19T03:21:53;16.50;99.90
51801;DHT22;37855;53.204;6.568;2022-08-19T03:24:20;16.50;99.90
51801;DHT22;37855;53.204;6.568;2022-08-19T03:26:48;16.50;99.90
51801;DHT22;37855;53.204;6.568;2022-08-19T03:29:15;16.40;99.90
51801;DHT22;37855;53.204;6.568;2022-08-19T03:31:43;16.40;99.90
51801;DHT22;37855;53.204;6.568;2022-08-19T03:34:12;16.40;99.90
51801;DHT22;37855;53.204;6.568;2022-08-19T03:36:38;16.40;99.90
51801;DHT22;37855;53.204;6.568;2022-08-19T03:39:04;16.40;99.90
51801;DHT22;37855;53.204;6.568;2022-08-19T03:41:39;16.40;99.90
51801;DHT22;37855;53.204;6.568;2022-08-19T03:44:06;16.40;99.90
51801;DHT22;37855;53.204;6.568;2022-08-19T03:46:35;16.40;99.90
51801;DHT22;37855;53.204;6.568;2022-08-19T03:49:03;16.40;99.90
51801;DHT22;37855;53.204;6.568;2022-08-19T03:51:36;16.40;99.90
51801;DHT22;37855;53.204;6.568;2022-08-19T03:54:05;16.40;99.90
51801;DHT22;37855;53.204;6.568;2022-08-19T03:56:37;16.30;99.90
51801;DHT22;37855;53.204;6.568;2022-08-19T03:59:06;16.40;99.90
51801;DHT22;37855;53.204;6.568;2022-08-19T04:01:32;16.40;99.90
51801;DHT22;37855;53.204;6.568;2022-08-19T04:03:59;16.30;99.90
51801;DHT22;37855;53.204;6.568;2022-08-19T04:06:27;16.30;99.90
51801;DHT22;37855;53.204;6.568;2022-08-19T04:08:54;16.40;99.90
51801;DHT22;37855;53.204;6.568;2022-08-19T04:11:30;16.30;99.90
51801;DHT22;37855;53.204;6.568;2022-08-19T04:13:57;16.30;99.90
51801;DHT22;37855;53.204;6.568;2022-08-19T04:16:25;16.30;99.90
51801;DHT22;37855;53.204;6.568;2022-08-19T04:18:54;16.30;99.90
51801;DHT22;37855;53.204;6.568;2022-08-19T04:21:23;16.30;99.90
51801;DHT22;37855;53.204;6.568;2022-08-19T04:23:49;16.30;99.90
51801;DHT22;37855;53.204;6.568;2022-08-19T04:26:21;16.30;99.90
51801;DHT22;37855;53.204;6.568;2022-08-19T04:28:47;16.30;99.90
51801;DHT22;37855;53.204;6.568;2022-08-19T04:31:19;16.30;99.90
51801;DHT22;37855;53.204;6.568;2022-08-19T04:33:45;16.30;99.90
51801;DHT22;37855;53.204;6.568;2022-08-19T04:36:21;16.30;99.90
51801;DHT22;37855;53.204;6.568;2022-08-19T04:38:50;16.30;99.90
51801;DHT22;37855;53.204;6.568;2022-08-19T04:41:16;16.30;99.90
51801;DHT22;37855;53.204;6.568;2022-08-19T04:44:00;16.30;99.90
51801;DHT22;37855;53.204;6.568;2022-08-19T04:46:26;16.30;99.90
51801;DHT22;37855;53.204;6.568;2022-08-19T04:48:54;16.30;99.90
51801;DHT22;37855;53.204;6.568;2022-08-19T04:51:22;16.30;99.90
51801;DHT22;37855;53.204;6.568;2022-08-19T04:53:47;16.30;99.90
51801;DHT22;37855;53.204;6.568;2022-08-19T04:56:16;16.30;99.90
51801;DHT22;37855;53.204;6.568;2022-08-19T04:58:43;16.30;99.90
51801;DHT22;37855;53.204;6.568;2022-08-19T05:01:12;16.30;99.90
51801;DHT22;37855;53.204;6.568;2022-08-19T05:03:38;16.30;99.90
51801;DHT22;37855;53.204;6.568;2022-08-19T05:06:07;16.30;99.90
51801;DHT22;37855;53.204;6.568;2022-08-19T05:08:34;16.30;99.90
51801;DHT22;37855;53.204;6.568;2022-08-19T05:11:11;16.30;99.90
51801;DHT22;37855;53.204;6.568;2022-08-19T05:13:38;16.40;99.90
51801;DHT22;37855;53.204;6.568;2022-08-19T05:16:04;16.40;99.90
51801;DHT22;37855;53.204;6.568;2022-08-19T05:18:30;16.40;99.90
51801;DHT22;37855;53.204;6.568;2022-08-19T05:21:17;16.50;99.90
51801;DHT22;37855;53.204;6.568;2022-08-19T05:24:04;16.60;99.90
51801;DHT22;37855;53.204;6.568;2022-08-19T05:26:39;16.60;99.90
51801;DHT22;37855;53.204;6.568;2022-08-19T05:29:06;16.70;99.90
51801;DHT22;37855;53.204;6.568;2022-08-19T05:31:33;16.70;99.90
51801;DHT22;37855;53.204;6.568;2022-08-19T05:33:58;16.80;99.90
51801;DHT22;37855;53.204;6.568;2022-08-19T05:36:32;16.80;99.90
51801;DHT22;37855;53.204;6.568;2022-08-19T05:38:58;16.90;99.90
51801;DHT22;37855;53.204;6.568;2022-08-19T05:41:23;16.90;99.90
51801;DHT22;37855;53.204;6.568;2022-08-19T05:43:55;16.90;99.90
51801;DHT22;37855;53.204;6.568;2022-08-19T05:46:22;17.00;99.90
51801;DHT22;37855;53.204;6.568;2022-08-19T05:48:48;17.00;99.90
51801;DHT22;37855;53.204;6.568;2022-08-19T05:51:14;17.00;99.90
51801;DHT22;37855;53.204;6.568;2022-08-19T05:53:41;17.10;99.90
51801;DHT22;37855;53.204;6.568;2022-08-19T05:56:13;17.10;99.90
51801;DHT22;37855;53.204;6.568;2022-08-19T05:58:41;17.20;99.90
51801;DHT22;37855;53.204;6.568;2022-08-19T06:01:18;17.20;99.90
51801;DHT22;37855;53.204;6.568;2022-08-19T06:03:45;17.30;99.90
51801;DHT22;37855;53.204;6.568;2022-08-19T06:06:12;17.30;99.90
51801;DHT22;37855;53.204;6.568;2022-08-19T06:08:39;17.30;99.90
51801;DHT22;37855;53.204;6.568;2022-08-19T06:14:00;17.50;99.90
51801;DHT22;37855;53.204;6.568;2022-08-19T06:16:27;17.50;99.90
51801;DHT22;37855;53.204;6.568;2022-08-19T06:18:54;17.60;99.90
51801;DHT22;37855;53.204;6.568;2022-08-19T06:21:25;17.60;99.90
51801;DHT22;37855;53.204;6.568;2022-08-19T06:23:52;17.70;99.90
51801;DHT22;37855;53.204;6.568;2022-08-19T06:26:19;17.70;99.90
51801;DHT22;37855;53.204;6.568;2022-08-19T06:28:47;17.70;99.90
51801;DHT22;37855;53.204;6.568;2022-08-19T06:31:26;17.90;99.90
51801;DHT22;37855;53.204;6.568;2022-08-19T06:33:52;17.80;99.90
51801;DHT22;37855;53.204;6.568;2022-08-19T06:36:26;17.90;99.90
51801;DHT22;37855;53.204;6.568;2022-08-19T06:38:57;18.00;99.90
51801;DHT22;37855;53.204;6.568;2022-08-19T06:41:24;18.10;99.90
51801;DHT22;37855;53.204;6.568;2022-08-19T06:43:54;18.10;99.90
51801;DHT22;37855;53.204;6.568;2022-08-19T06:46:20;18.20;99.90
51801;DHT22;37855;53.204;6.568;2022-08-19T06:48:47;18.30;99.90
51801;DHT22;37855;53.204;6.568;2022-08-19T06:51:15;18.30;99.90
51801;DHT22;37855;53.204;6.568;2022-08-19T06:53:45;18.40;99.90
51801;DHT22;37855;53.204;6.568;2022-08-19T06:56:13;18.40;99.90
51801;DHT22;37855;53.204;6.568;2022-08-19T06:58:39;18.50;99.90
51801;DHT22;37855;53.204;6.568;2022-08-19T07:01:05;18.50;99.90
51801;DHT22;37855;53.204;6.568;2022-08-19T07:03:34;18.60;99.90
51801;DHT22;37855;53.204;6.568;2022-08-19T07:06:09;18.70;99.90
51801;DHT22;37855;53.204;6.568;2022-08-19T07:08:36;18.80;99.90
51801;DHT22;37855;53.204;6.568;2022-08-19T07:11:06;18.90;99.90
51801;DHT22;37855;53.204;6.568;2022-08-19T07:13:33;18.90;99.90
51801;DHT22;37855;53.204;6.568;2022-08-19T07:16:09;19.00;99.90
51801;DHT22;37855;53.204;6.568;2022-08-19T07:18:35;19.10;99.90
51801;DHT22;37855;53.204;6.568;2022-08-19T07:21:04;19.20;99.90
51801;DHT22;37855;53.204;6.568;2022-08-19T07:23:32;19.20;99.90
51801;DHT22;37855;53.204;6.568;2022-08-19T07:26:04;19.30;99.90
51801;DHT22;37855;53.204;6.568;2022-08-19T07:28:30;19.40;99.90
51801;DHT22;37855;53.204;6.568;2022-08-19T07:30:55;19.40;99.90
51801;DHT22;37855;53.204;6.568;2022-08-19T07:33:21;19.40;99.90
51801;DHT22;37855;53.204;6.568;2022-08-19T07:35:47;19.40;99.90
51801;DHT22;37855;53.204;6.568;2022-08-19T07:38:13;19.50;99.90
51801;DHT22;37855;53.204;6.568;2022-08-19T07:40:40;19.60;99.90
51801;DHT22;37855;53.204;6.568;2022-08-19T07:43:09;19.60;99.90
51801;DHT22;37855;53.204;6.568;2022-08-19T07:45:36;19.70;99.90
51801;DHT22;37855;53.204;6.568;2022-08-19T07:48:02;19.70;99.90
51801;DHT22;37855;53.204;6.568;2022-08-19T07:50:29;19.80;99.90
51801;DHT22;37855;53.204;6.568;2022-08-19T07:52:58;19.90;99.90
51801;DHT22;37855;53.204;6.568;2022-08-19T07:55:47;20.00;99.90
51801;DHT22;37855;53.204;6.568;2022-08-19T07:58:21;20.00;99.90
51801;DHT22;37855;53.204;6.568;2022-08-19T08:00:49;20.10;99.90
51801;DHT22;37855;53.204;6.568;2022-08-19T08:03:17;20.20;99.90
51801;DHT22;37855;53.204;6.568;2022-08-19T08:05:43;20.30;99.90
51801;DHT22;37855;53.204;6.568;2022-08-19T08:08:28;20.40;99.90
51801;DHT22;37855;53.204;6.568;2022-08-19T08:11:13;20.50;99.90
51801;DHT22;37855;53.204;6.568;2022-08-19T08:13:40;20.60;99.90
51801;DHT22;37855;53.204;6.568;2022-08-19T08:16:06;20.80;99.90
51801;DHT22;37855;53.204;6.568;2022-08-19T08:18:33;21.00;99.90
51801;DHT22;37855;53.204;6.568;2022-08-19T08:20:59;21.00;99.90
51801;DHT22;37855;53.204;6.568;2022-08-19T08:23:25;21.20;99.90
51801;DHT22;37855;53.204;6.568;2022-08-19T08:25:53;21.30;99.90
51801;DHT22;37855;53.204;6.568;2022-08-19T08:28:21;21.50;99.90
51801;DHT22;37855;53.204;6.568;2022-08-19T08:30:48;21.50;99.90
51801;DHT22;37855;53.204;6.568;2022-08-19T08:33:22;21.60;99.90
51801;DHT22;37855;53.204;6.568;2022-08-19T08:35:48;21.70;99.90
51801;DHT22;37855;53.204;6.568;2022-08-19T08:38:14;21.70;99.90
51801;DHT22;37855;53.204;6.568;2022-08-19T08:40:48;21.80;99.90
51801;DHT22;37855;53.204;6.568;2022-08-19T08:43:27;21.90;99.90
51801;DHT22;37855;53.204;6.568;2022-08-19T08:46:09;22.00;99.90
51801;DHT22;37855;53.204;6.568;2022-08-19T08:48:46;21.90;98.90
51801;DHT22;37855;53.204;6.568;2022-08-19T08:51:18;21.90;98.30
51801;DHT22;37855;53.204;6.568;2022-08-19T08:53:48;21.90;99.00
51801;DHT22;37855;53.204;6.568;2022-08-19T08:56:15;21.90;98.20
51801;DHT22;37855;53.204;6.568;2022-08-19T08:58:50;21.90;97.90
51801;DHT22;37855;53.204;6.568;2022-08-19T09:01:18;22.00;97.40
51801;DHT22;37855;53.204;6.568;2022-08-19T09:03:45;22.00;97.00
51801;DHT22;37855;53.204;6.568;2022-08-19T09:06:16;22.10;97.00
51801;DHT22;37855;53.204;6.568;2022-08-19T09:17:02;22.30;96.00
51801;DHT22;37855;53.204;6.568;2022-08-19T09:19:29;22.30;96.40
51801;DHT22;37855;53.204;6.568;2022-08-19T09:21:56;22.50;96.70
51801;DHT22;37855;53.204;6.568;2022-08-19T09:24:22;22.50;96.70
51801;DHT22;37855;53.204;6.568;2022-08-19T09:26:48;22.60;96.40
51801;DHT22;37855;53.204;6.568;2022-08-19T09:29:13;22.70;96.00
51801;DHT22;37855;53.204;6.568;2022-08-19T09:31:39;22.70;95.40
51801;DHT22;37855;53.204;6.568;2022-08-19T09:34:10;22.80;95.30
51801;DHT22;37855;53.204;6.568;2022-08-19T09:36:46;22.90;94.00
51801;DHT22;37855;53.204;6.568;2022-08-19T09:39:36;23.00;94.00
51801;DHT22;37855;53.204;6.568;2022-08-19T09:42:03;23.00;93.50
51801;DHT22;37855;53.204;6.568;2022-08-19T09:44:30;23.10;93.60
51801;DHT22;37855;53.204;6.568;2022-08-19T09:46:55;23.20;93.40
51801;DHT22;37855;53.204;6.568;2022-08-19T09:49:21;23.20;92.30
51801;DHT22;37855;53.204;6.568;2022-08-19T09:51:51;23.20;91.80
51801;DHT22;37855;53.204;6.568;2022-08-19T09:54:17;23.30;91.70
51801;DHT22;37855;53.204;6.568;2022-08-19T09:56:43;23.40;91.10
51801;DHT22;37855;53.204;6.568;2022-08-19T09:59:12;23.40;91.20
51801;DHT22;37855;53.204;6.568;2022-08-19T10:01:38;23.50;90.60
51801;DHT22;37855;53.204;6.568;2022-08-19T10:04:04;23.60;90.40
51801;DHT22;37855;53.204;6.568;2022-08-19T10:06:35;23.70;90.30
51801;DHT22;37855;53.204;6.568;2022-08-19T10:09:00;23.80;90.20
51801;DHT22;37855;53.204;6.568;2022-08-19T10:11:30;23.80;89.90
51801;DHT22;37855;53.204;6.568;2022-08-19T10:13:55;23.80;89.40
51801;DHT22;37855;53.204;6.568;2022-08-19T10:16:23;23.90;88.00
51801;DHT22;37855;53.204;6.568;2022-08-19T10:18:50;23.90;87.60
51801;DHT22;37855;53.204;6.568;2022-08-19T10:21:22;23.90;87.40
51801;DHT22;37855;53.204;6.568;2022-08-19T10:23:50;24.00;86.60
51801;DHT22;37855;53.204;6.568;2022-08-19T10:26:21;24.00;84.60
51801;DHT22;37855;53.204;6.568;2022-08-19T10:28:48;23.90;83.70
51801;DHT22;37855;53.204;6.568;2022-08-19T10:31:17;23.90;84.20
51801;DHT22;37855;53.204;6.568;2022-08-19T10:33:46;23.90;85.30
51801;DHT22;37855;53.204;6.568;2022-08-19T10:36:18;23.90;85.60
51801;DHT22;37855;53.204;6.568;2022-08-19T10:38:46;23.80;85.20
51801;DHT22;37855;53.204;6.568;2022-08-19T10:41:17;23.70;85.20
51801;DHT22;37855;53.204;6.568;2022-08-19T10:43:43;23.70;84.60
51801;DHT22;37855;53.204;6.568;2022-08-19T10:46:13;23.80;84.30
51801;DHT22;37855;53.204;6.568;2022-08-19T10:48:40;23.90;84.30
51801;DHT22;37855;53.204;6.568;2022-08-19T10:51:06;24.00;84.90
51801;DHT22;37855;53.204;6.568;2022-08-19T10:53:51;23.90;84.60
51801;DHT22;37855;53.204;6.568;2022-08-19T10:56:18;24.00;84.00
51801;DHT22;37855;53.204;6.568;2022-08-19T10:59:03;24.00;84.00
51801;DHT22;37855;53.204;6.568;2022-08-19T11:01:36;24.10;83.90
51801;DHT22;37855;53.204;6.568;2022-08-19T11:04:06;24.10;83.80
51801;DHT22;37855;53.204;6.568;2022-08-19T11:06:35;24.20;83.90
51801;DHT22;37855;53.204;6.568;2022-08-19T11:09:02;24.30;83.60
51801;DHT22;37855;53.204;6.568;2022-08-19T11:11:28;24.30;82.30
51801;DHT22;37855;53.204;6.568;2022-08-19T11:13:54;24.30;81.80
51801;DHT22;37855;53.204;6.568;2022-08-19T11:16:23;24.40;82.30
51801;DHT22;37855;53.204;6.568;2022-08-19T11:18:52;24.40;81.90
51801;DHT22;37855;53.204;6.568;2022-08-19T11:21:27;24.40;82.40
51801;DHT22;37855;53.204;6.568;2022-08-19T11:23:56;24.50;83.00
51801;DHT22;37855;53.204;6.568;2022-08-19T11:26:23;24.60;81.50
51801;DHT22;37855;53.204;6.568;2022-08-19T11:28:50;24.70;81.20
51801;DHT22;37855;53.204;6.568;2022-08-19T11:31:21;24.80;79.10
51801;DHT22;37855;53.204;6.568;2022-08-19T11:33:47;24.70;77.90
51801;DHT22;37855;53.204;6.568;2022-08-19T11:36:16;24.60;78.80
51801;DHT22;37855;53.204;6.568;2022-08-19T11:38:42;24.60;79.30
51801;DHT22;37855;53.204;6.568;2022-08-19T11:41:07;24.60;78.80
51801;DHT22;37855;53.204;6.568;2022-08-19T11:43:34;24.70;79.40
51801;DHT22;37855;53.204;6.568;2022-08-19T11:46:10;24.70;78.10
51801;DHT22;37855;53.204;6.568;2022-08-19T11:48:36;24.60;78.00
51801;DHT22;37855;53.204;6.568;2022-08-19T11:51:08;24.60;78.50
51801;DHT22;37855;53.204;6.568;2022-08-19T11:53:37;24.60;79.50
51801;DHT22;37855;53.204;6.568;2022-08-19T11:56:04;24.60;79.60
51801;DHT22;37855;53.204;6.568;2022-08-19T11:58:30;24.60;79.60
51801;DHT22;37855;53.204;6.568;2022-08-19T12:00:59;24.50;79.60
51801;DHT22;37855;53.204;6.568;2022-08-19T12:03:25;24.50;79.20
51801;DHT22;37855;53.204;6.568;2022-08-19T12:05:51;24.50;79.90
51801;DHT22;37855;53.204;6.568;2022-08-19T12:08:17;24.50;79.80
51801;DHT22;37855;53.204;6.568;2022-08-19T12:10:43;24.60;79.70
51801;DHT22;37855;53.204;6.568;2022-08-19T12:13:11;24.60;79.90
51801;DHT22;37855;53.204;6.568;2022-08-19T12:15:40;24.70;80.10
51801;DHT22;37855;53.204;6.568;2022-08-19T12:18:07;24.70;79.90
51801;DHT22;37855;53.204;6.568;2022-08-19T12:20:38;24.70;79.60
51801;DHT22;37855;53.204;6.568;2022-08-19T12:23:05;24.70;79.30
51801;DHT22;37855;53.204;6.568;2022-08-19T12:25:32;24.80;79.60
51801;DHT22;37855;53.204;6.568;2022-08-19T12:28:00;24.80;79.40
51801;DHT22;37855;53.204;6.568;2022-08-19T12:30:26;24.70;79.40
51801;DHT22;37855;53.204;6.568;2022-08-19T12:32:52;24.70;78.70
51801;DHT22;37855;53.204;6.568;2022-08-19T12:35:18;24.70;78.10
51801;DHT22;37855;53.204;6.568;2022-08-19T12:37:46;24.70;77.90
51801;DHT22;37855;53.204;6.568;2022-08-19T12:40:14;24.70;77.30
51801;DHT22;37855;53.204;6.568;2022-08-19T12:42:40;24.70;77.10
51801;DHT22;37855;53.204;6.568;2022-08-19T12:45:12;24.80;77.40
51801;DHT22;37855;53.204;6.568;2022-08-19T12:47:39;24.80;77.90
51801;DHT22;37855;53.204;6.568;2022-08-19T12:50:06;24.90;78.80
51801;DHT22;37855;53.204;6.568;2022-08-19T12:52:35;25.00;78.80
51801;DHT22;37855;53.204;6.568;2022-08-19T12:55:03;25.00;77.40
51801;DHT22;37855;53.204;6.568;2022-08-19T12:57:30;24.90;77.40
51801;DHT22;37855;53.204;6.568;2022-08-19T12:59:59;25.00;76.80
51801;DHT22;37855;53.204;6.568;2022-08-19T13:02:25;24.90;76.00
51801;DHT22;37855;53.204;6.568;2022-08-19T13:04:51;24.90;75.40
51801;DHT22;37855;53.204;6.568;2022-08-19T13:07:17;24.90;75.50
51801;DHT22;37855;53.204;6.568;2022-08-19T13:09:42;24.90;75.30
51801;DHT22;37855;53.204;6.568;2022-08-19T13:12:08;24.80;76.00
51801;DHT22;37855;53.204;6.568;2022-08-19T13:14:38;24.80;76.30
51801;DHT22;37855;53.204;6.568;2022-08-19T13:17:06;24.80;76.40
51801;DHT22;37855;53.204;6.568;2022-08-19T13:19:32;24.70;77.00
51801;DHT22;37855;53.204;6.568;2022-08-19T13:21:57;24.60;76.60
51801;DHT22;37855;53.204;6.568;2022-08-19T13:24:24;24.70;77.40
51801;DHT22;37855;53.204;6.568;2022-08-19T13:26:50;24.80;77.30
51801;DHT22;37855;53.204;6.568;2022-08-19T13:29:15;24.80;77.20
51801;DHT22;37855;53.204;6.568;2022-08-19T13:31:59;24.80;78.30
51801;DHT22;37855;53.204;6.568;2022-08-19T13:34:44;24.80;81.40
51801;DHT22;37855;53.204;6.568;2022-08-19T13:37:11;24.70;82.20
51801;DHT22;37855;53.204;6.568;2022-08-19T13:39:37;24.70;82.30
51801;DHT22;37855;53.204;6.568;2022-08-19T13:42:03;24.60;82.30
51801;DHT22;37855;53.204;6.568;2022-08-19T13:44:30;24.60;83.50
51801;DHT22;37855;53.204;6.568;2022-08-19T13:47:01;24.60;83.30
51801;DHT22;37855;53.204;6.568;2022-08-19T13:49:31;24.50;82.90
51801;DHT22;37855;53.204;6.568;2022-08-19T13:51:57;24.40;82.30
51801;DHT22;37855;53.204;6.568;2022-08-19T13:54:23;24.20;82.70
51801;DHT22;37855;53.204;6.568;2022-08-19T13:56:48;24.10;82.90
51801;DHT22;37855;53.204;6.568;2022-08-19T13:59:14;24.00;82.80
51801;DHT22;37855;53.204;6.568;2022-08-19T14:01:44;23.90;83.40
51801;DHT22;37855;53.204;6.568;2022-08-19T14:04:11;23.90;84.20
51801;DHT22;37855;53.204;6.568;2022-08-19T14:06:36;23.80;83.90
51801;DHT22;37855;53.204;6.568;2022-08-19T14:09:03;23.70;83.90
51801;DHT22;37855;53.204;6.568;2022-08-19T14:11:29;23.70;83.20
51801;DHT22;37855;53.204;6.568;2022-08-19T14:13:55;23.60;83.60
51801;DHT22;37855;53.204;6.568;2022-08-19T14:16:20;23.60;83.00
51801;DHT22;37855;53.204;6.568;2022-08-19T14:18:47;23.60;83.50
51801;DHT22;37855;53.204;6.568;2022-08-19T14:21:19;23.50;84.50
51801;DHT22;37855;53.204;6.568;2022-08-19T14:23:46;23.50;85.20
51801;DHT22;37855;53.204;6.568;2022-08-19T14:26:14;23.50;85.90
51801;DHT22;37855;53.204;6.568;2022-08-19T14:28:41;23.50;87.00
51801;DHT22;37855;53.204;6.568;2022-08-19T14:31:08;23.50;87.50
51801;DHT22;37855;53.204;6.568;2022-08-19T14:33:34;23.50;87.80
51801;DHT22;37855;53.204;6.568;2022-08-19T14:36:00;23.60;88.10
51801;DHT22;37855;53.204;6.568;2022-08-19T14:38:26;23.70;87.60
51801;DHT22;37855;53.204;6.568;2022-08-19T14:40:52;23.70;87.40
51801;DHT22;37855;53.204;6.568;2022-08-19T14:43:18;23.70;87.30
51801;DHT22;37855;53.204;6.568;2022-08-19T14:45:43;23.80;87.30
51801;DHT22;37855;53.204;6.568;2022-08-19T14:48:09;23.80;87.40
51801;DHT22;37855;53.204;6.568;2022-08-19T14:50:39;23.80;87.90
51801;DHT22;37855;53.204;6.568;2022-08-19T14:53:08;23.80;88.50
51801;DHT22;37855;53.204;6.568;2022-08-19T14:55:42;23.80;88.70
51801;DHT22;37855;53.204;6.568;2022-08-19T14:58:08;23.80;89.20
51801;DHT22;37855;53.204;6.568;2022-08-19T15:00:34;23.90;89.80
51801;DHT22;37855;53.204;6.568;2022-08-19T15:02:59;23.90;90.00
51801;DHT22;37855;53.204;6.568;2022-08-19T15:05:25;23.80;89.80
51801;DHT22;37855;53.204;6.568;2022-08-19T15:07:52;23.90;90.00
51801;DHT22;37855;53.204;6.568;2022-08-19T15:10:19;24.00;89.50
51801;DHT22;37855;53.204;6.568;2022-08-19T15:12:46;24.00;88.90
51801;DHT22;37855;53.204;6.568;2022-08-19T15:15:14;24.00;88.80
51801;DHT22;37855;53.204;6.568;2022-08-19T15:17:43;24.00;88.80
51801;DHT22;37855;53.204;6.568;2022-08-19T15:20:14;24.00;88.20
51801;DHT22;37855;53.204;6.568;2022-08-19T15:22:40;24.00;87.70
51801;DHT22;37855;53.204;6.568;2022-08-19T15:25:09;24.00;87.70
51801;DHT22;37855;53.204;6.568;2022-08-19T15:27:36;24.00;86.20
51801;DHT22;37855;53.204;6.568;2022-08-19T15:30:04;24.00;85.40
51801;DHT22;37855;53.204;6.568;2022-08-19T15:32:30;24.10;85.40
51801;DHT22;37855;53.204;6.568;2022-08-19T15:34:56;24.10;85.30
51801;DHT22;37855;53.204;6.568;2022-08-19T15:37:21;24.30;85.10
51801;DHT22;37855;53.204;6.568;2022-08-19T15:39:48;24.20;84.70
51801;DHT22;37855;53.204;6.568;2022-08-19T15:42:14;24.20;83.90
51801;DHT22;37855;53.204;6.568;2022-08-19T15:44:40;24.20;83.50
51801;DHT22;37855;53.204;6.568;2022-08-19T15:47:06;24.30;83.60
51801;DHT22;37855;53.204;6.568;2022-08-19T15:49:31;24.30;84.00